createdAt,value
2023-04-17T00:01:32.807Z,22.56
2023-04-17T00:03:59.488Z,22.56
2023-04-17T00:06:27.405Z,22.56
2023-04-17T00:08:54.070Z,22.50
2023-04-17T00:11:21.360Z,22.54
2023-04-17T00:13:48.059Z,22.54
2023-04-17T00:16:14.730Z,22.54
2023-04-17T00:18:41.350Z,22.53
2023-04-17T00:21:08.031Z,22.54
2023-04-17T00:23:34.579Z,22.54
2023-04-17T00:26:01.324Z,22.54
2023-04-17T00:28:27.986Z,22.50
2023-04-17T00:30:54.744Z,22.50
2023-04-17T00:33:21.931Z,22.47
2023-04-17T00:35:48.614Z,22.53
2023-04-17T00:38:15.685Z,22.52
2023-04-17T00:40:42.731Z,22.41
2023-04-17T00:43:09.438Z,22.51
2023-04-17T00:45:36.418Z,22.38
2023-04-17T00:48:04.981Z,22.40
2023-04-17T00:50:31.789Z,22.51
2023-04-17T00:52:58.618Z,22.50
2023-04-17T00:55:26.876Z,22.49
2023-04-17T00:57:53.892Z,22.49
2023-04-17T01:00:20.807Z,22.49
2023-04-17T01:02:47.631Z,22.32
2023-04-17T01:05:14.907Z,22.47
2023-04-17T01:07:42.177Z,22.48
2023-04-17T01:10:09.635Z,22.45
2023-04-17T01:12:36.678Z,22.47
2023-04-17T01:15:05.848Z,22.45
2023-04-17T01:17:32.653Z,22.46
2023-04-17T01:19:59.600Z,22.42
2023-04-17T01:22:26.292Z,22.45
2023-04-17T01:24:57.157Z,22.46
2023-04-17T01:27:27.007Z,22.46
2023-04-17T01:29:54.038Z,22.42
2023-04-17T01:32:21.186Z,22.44
2023-04-17T01:34:47.778Z,22.36
2023-04-17T01:37:14.385Z,22.44
2023-04-17T01:39:41.110Z,22.41
2023-04-17T01:42:07.853Z,22.44
2023-04-17T01:44:34.504Z,22.40
2023-04-17T01:47:01.164Z,22.43
2023-04-17T01:49:28.029Z,22.42
2023-04-17T01:51:54.730Z,22.29
2023-04-17T01:54:21.486Z,22.43
2023-04-17T01:56:48.171Z,22.41
2023-04-17T01:59:14.725Z,22.40
2023-04-17T02:01:41.867Z,22.41
2023-04-17T02:04:08.936Z,22.41
2023-04-17T02:06:35.832Z,22.40
2023-04-17T02:09:04.057Z,22.40
2023-04-17T02:11:30.716Z,22.40
2023-04-17T02:13:57.288Z,22.40
2023-04-17T02:16:24.252Z,22.41
2023-04-17T02:18:51.823Z,22.41
2023-04-17T02:21:18.420Z,22.40
2023-04-17T02:23:45.013Z,22.39
2023-04-17T02:26:11.714Z,22.40
2023-04-17T02:28:38.691Z,22.30
2023-04-17T02:31:09.288Z,22.39
2023-04-17T02:33:36.754Z,22.30
2023-04-17T02:36:06.873Z,22.38
2023-04-17T02:38:42.186Z,22.38
2023-04-17T02:41:08.826Z,22.38
2023-04-17T02:43:35.425Z,22.34
2023-04-17T02:46:02.188Z,22.39
2023-04-17T02:48:28.757Z,22.40
2023-04-17T02:50:55.753Z,22.39
2023-04-17T02:53:22.696Z,22.40
2023-04-17T02:55:50.041Z,22.37
2023-04-17T02:58:19.432Z,22.40
2023-04-17T03:00:46.392Z,22.40
2023-04-17T03:03:16.432Z,22.40
2023-04-17T03:05:43.273Z,22.42
2023-04-17T03:08:09.895Z,22.40
2023-04-17T03:10:45.210Z,22.41
2023-04-17T03:13:12.063Z,22.41
2023-04-17T03:15:38.639Z,22.41
2023-04-17T03:18:05.417Z,22.33
2023-04-17T03:20:32.289Z,22.40
2023-04-17T03:22:59.054Z,22.29
2023-04-17T03:25:25.800Z,22.40
2023-04-17T03:27:52.934Z,22.40
2023-04-17T03:30:22.178Z,22.40
2023-04-17T03:32:51.415Z,22.25
2023-04-17T03:35:18.061Z,22.39
2023-04-17T03:37:45.001Z,22.30
2023-04-17T03:40:13.182Z,22.39
2023-04-17T03:42:40.446Z,22.30
2023-04-17T03:45:09.336Z,22.37
2023-04-17T03:47:36.153Z,22.32
2023-04-17T03:50:02.915Z,22.28
2023-04-17T03:52:35.592Z,22.35
2023-04-17T03:55:04.182Z,22.36
2023-04-17T03:57:30.737Z,22.27
2023-04-17T03:59:57.769Z,22.36
2023-04-17T04:02:24.920Z,22.35
2023-04-17T04:04:54.182Z,22.36
2023-04-17T04:07:21.498Z,22.35
2023-04-17T04:09:49.951Z,22.35
2023-04-17T04:12:17.902Z,22.17
2023-04-17T04:14:45.732Z,22.35
2023-04-17T04:17:15.780Z,22.34
2023-04-17T04:19:43.511Z,22.35
2023-04-17T04:22:10.374Z,22.26
2023-04-17T04:24:44.160Z,22.27
2023-04-17T04:27:18.148Z,22.37
2023-04-17T04:29:48.776Z,22.37
2023-04-17T04:32:18.905Z,22.40
2023-04-17T04:34:46.875Z,22.42
2023-04-17T04:37:15.361Z,22.44
2023-04-17T04:39:43.998Z,22.35
2023-04-17T04:42:22.000Z,22.42
2023-04-17T04:47:40.143Z,22.46
2023-04-17T04:50:08.596Z,22.46
2023-04-17T04:52:36.354Z,22.46
2023-04-17T04:55:09.532Z,22.37
2023-04-17T04:57:44.001Z,22.46
2023-04-17T05:00:14.483Z,22.44
2023-04-17T05:02:46.421Z,22.44
2023-04-17T05:05:16.212Z,22.42
2023-04-17T05:07:42.755Z,22.44
2023-04-17T05:10:12.682Z,22.40
2023-04-17T05:12:44.995Z,22.44
2023-04-17T05:15:13.831Z,22.11
2023-04-17T05:17:41.632Z,22.45
2023-04-17T05:20:12.307Z,22.46
2023-04-17T05:22:46.734Z,22.45
2023-04-17T05:25:14.095Z,22.46
2023-04-17T05:27:41.098Z,22.21
2023-04-17T05:30:08.759Z,22.46
2023-04-17T05:32:35.944Z,22.46
2023-04-17T05:35:24.141Z,22.46
2023-04-17T05:37:51.656Z,22.32
2023-04-17T05:40:18.462Z,22.44
2023-04-17T05:42:45.139Z,22.33
2023-04-17T05:45:15.328Z,22.45
2023-04-17T05:47:42.366Z,22.38
2023-04-17T05:50:09.441Z,22.45
2023-04-17T05:52:39.195Z,22.37
2023-04-17T05:55:08.835Z,22.43
2023-04-17T05:57:35.695Z,22.45
2023-04-17T06:00:08.576Z,22.45
2023-04-17T06:02:42.982Z,22.45
2023-04-17T06:05:14.806Z,22.47
2023-04-17T06:07:41.493Z,22.47
2023-04-17T06:10:11.689Z,22.46
2023-04-17T06:12:38.736Z,22.47
2023-04-17T06:15:11.918Z,22.47
2023-04-17T06:17:39.708Z,22.38
2023-04-17T06:20:10.384Z,22.48
2023-04-17T06:22:38.058Z,22.45
2023-04-17T06:25:05.948Z,22.43
2023-04-17T06:27:33.903Z,22.39
2023-04-17T06:30:03.603Z,22.49
2023-04-17T06:34:59.013Z,22.48
2023-04-17T06:37:41.607Z,22.48
2023-04-17T06:40:09.153Z,22.46
2023-04-17T06:42:35.858Z,22.49
2023-04-17T06:45:03.301Z,22.49
2023-04-17T06:47:29.929Z,22.49
2023-04-17T06:49:59.664Z,22.50
2023-04-17T06:52:26.593Z,22.51
2023-04-17T06:54:56.328Z,22.52
2023-04-17T06:57:22.924Z,22.53
2023-04-17T06:59:49.540Z,22.55
2023-04-17T07:02:16.581Z,22.50
2023-04-17T07:04:44.557Z,22.56
2023-04-17T07:07:11.480Z,22.59
2023-04-17T07:09:38.297Z,22.61
2023-04-17T07:12:04.888Z,22.58
2023-04-17T07:14:31.489Z,22.54
2023-04-17T07:17:01.304Z,22.53
2023-04-17T07:19:28.165Z,22.61
2023-04-17T07:21:54.699Z,22.63
2023-04-17T07:24:21.306Z,22.63
2023-04-17T07:26:49.445Z,22.64
2023-04-17T07:29:16.048Z,22.64
2023-04-17T07:31:42.898Z,22.53
2023-04-17T07:34:09.556Z,22.65
2023-04-17T07:36:37.047Z,22.67
2023-04-17T07:39:04.021Z,22.66
2023-04-17T07:41:30.650Z,22.66
2023-04-17T07:43:58.982Z,22.70
2023-04-17T07:46:26.202Z,22.65
2023-04-17T07:48:55.668Z,22.69
2023-04-17T07:51:22.202Z,22.48
2023-04-17T07:53:48.830Z,22.74
2023-04-17T07:56:15.364Z,22.71
2023-04-17T07:58:42.328Z,22.76
2023-04-17T08:01:08.982Z,22.75
2023-04-17T08:03:35.760Z,22.77
2023-04-17T08:06:02.449Z,22.76
2023-04-17T08:08:29.071Z,22.77
2023-04-17T08:10:55.623Z,22.77
2023-04-17T08:13:22.223Z,22.78
2023-04-17T08:15:49.143Z,22.79
2023-04-17T08:18:15.876Z,22.78
2023-04-17T08:20:42.885Z,22.80
2023-04-17T08:23:09.533Z,22.72
2023-04-17T08:25:36.097Z,22.81
2023-04-17T08:28:04.136Z,22.81
2023-04-17T08:30:31.031Z,22.71
2023-04-17T08:32:57.887Z,22.81
2023-04-17T08:35:25.400Z,22.71
2023-04-17T08:37:52.117Z,22.82
2023-04-17T08:40:21.417Z,22.84
2023-04-17T08:42:48.309Z,22.84
2023-04-17T08:45:15.024Z,22.84
2023-04-17T08:47:42.911Z,22.84
2023-04-17T08:50:20.619Z,22.85
2023-04-17T08:52:49.916Z,22.09
2023-04-17T08:55:19.325Z,22.72
2023-04-17T08:58:06.100Z,22.80
2023-04-17T09:00:38.507Z,22.83
2023-04-17T09:03:11.295Z,22.81
2023-04-17T09:05:43.320Z,22.77
2023-04-17T09:08:17.748Z,22.68
2023-04-17T09:10:47.160Z,22.79
2023-04-17T09:13:16.107Z,22.63
2023-04-17T09:15:44.275Z,22.77
2023-04-17T09:18:27.748Z,22.77
2023-04-17T09:20:54.526Z,22.74
2023-04-17T09:23:22.775Z,22.72
2023-04-17T09:26:09.949Z,22.65
2023-04-17T09:28:39.506Z,22.64
2023-04-17T09:31:26.470Z,22.72
2023-04-17T09:33:59.991Z,22.71
2023-04-17T09:36:28.498Z,22.71
2023-04-17T09:38:55.029Z,22.68
2023-04-17T09:41:33.238Z,22.64
2023-04-17T09:44:02.047Z,22.65
2023-04-17T09:46:45.652Z,22.68
2023-04-17T09:51:30.328Z,22.51
2023-04-17T09:53:59.155Z,22.66
2023-04-17T09:56:28.030Z,22.67
2023-04-17T09:58:54.879Z,22.67
2023-04-17T10:01:22.118Z,22.64
2023-04-17T10:03:49.831Z,22.67
2023-04-17T10:06:17.120Z,22.69
2023-04-17T10:08:43.843Z,22.66
2023-04-17T10:11:10.469Z,22.63
2023-04-17T10:13:38.702Z,22.65
2023-04-17T10:16:06.357Z,22.73
2023-04-17T10:18:32.946Z,22.62
2023-04-17T10:21:21.798Z,22.73
2023-04-17T10:23:49.149Z,22.71
2023-04-17T10:26:24.926Z,22.74
2023-04-17T10:28:53.429Z,22.74
2023-04-17T10:31:21.068Z,22.75
2023-04-17T10:33:49.333Z,22.75
2023-04-17T10:36:37.836Z,22.74
2023-04-17T10:39:18.219Z,22.73
2023-04-17T10:42:05.770Z,22.55
2023-04-17T10:44:34.149Z,22.73
2023-04-17T10:47:08.039Z,22.73
2023-04-17T10:49:59.828Z,22.73
2023-04-17T10:52:32.206Z,22.72
2023-04-17T10:55:07.928Z,22.73
2023-04-17T10:57:59.762Z,22.73
2023-04-17T11:00:36.783Z,22.72
2023-04-17T11:03:04.992Z,22.76
2023-04-17T11:05:32.561Z,22.72
2023-04-17T11:07:59.508Z,22.79
2023-04-17T11:10:26.617Z,22.82
2023-04-17T11:12:55.531Z,22.83
2023-04-17T11:15:34.291Z,22.75
2023-04-17T11:18:02.647Z,22.87
2023-04-17T11:20:35.881Z,22.87
2023-04-17T11:23:04.042Z,22.88
2023-04-17T11:25:31.850Z,22.89
2023-04-17T11:28:04.982Z,22.90
2023-04-17T11:30:33.979Z,22.92
2023-04-17T11:33:03.161Z,22.92
2023-04-17T11:35:38.318Z,22.93
2023-04-17T11:38:21.129Z,22.94
2023-04-17T11:40:54.023Z,22.94
2023-04-17T11:43:21.247Z,22.94
2023-04-17T11:45:51.029Z,22.94
2023-04-17T11:48:23.033Z,22.95
2023-04-17T11:50:49.706Z,22.96
2023-04-17T11:53:17.089Z,22.95
2023-04-17T11:55:44.649Z,22.97
2023-04-17T11:58:12.802Z,22.96
2023-04-17T12:00:40.673Z,22.98
2023-04-17T12:03:36.040Z,22.97
2023-04-17T12:06:05.210Z,22.94
2023-04-17T12:08:41.812Z,22.89
2023-04-17T12:11:15.330Z,22.98
2023-04-17T12:13:41.863Z,22.96
2023-04-17T12:16:08.409Z,22.97
2023-04-17T12:18:35.041Z,22.96
2023-04-17T12:21:01.702Z,22.97
2023-04-17T12:23:28.363Z,22.97
2023-04-17T12:25:54.902Z,22.98
2023-04-17T12:28:22.139Z,22.99
2023-04-17T12:30:48.696Z,22.97
2023-04-17T12:33:15.429Z,22.97
2023-04-17T12:35:42.008Z,22.97
2023-04-17T12:38:08.593Z,22.98
2023-04-17T12:40:35.239Z,22.92
2023-04-17T12:43:01.957Z,22.97
2023-04-17T12:45:28.547Z,22.96
2023-04-17T12:47:55.208Z,22.96
2023-04-17T12:50:21.851Z,22.95
2023-04-17T12:52:48.407Z,22.63
2023-04-17T12:55:14.903Z,22.80
2023-04-17T12:57:41.609Z,22.93
2023-04-17T13:00:09.374Z,22.88
2023-04-17T13:02:36.558Z,22.92
2023-04-17T13:05:06.083Z,22.82
2023-04-17T13:07:35.877Z,22.84
2023-04-17T13:10:02.424Z,22.88
2023-04-17T13:12:29.436Z,22.88
2023-04-17T13:14:57.486Z,22.88
2023-04-17T13:17:24.863Z,22.87
2023-04-17T13:19:53.889Z,22.87
2023-04-17T13:22:20.611Z,22.86
2023-04-17T13:24:47.148Z,22.86
2023-04-17T13:27:13.749Z,22.85
2023-04-17T13:29:40.353Z,22.82
2023-04-17T13:32:06.983Z,22.83
2023-04-17T13:34:33.653Z,22.81
2023-04-17T13:37:02.937Z,22.80
2023-04-17T13:39:29.576Z,22.79
2023-04-17T13:41:58.123Z,22.78
2023-04-17T13:44:25.476Z,22.78
2023-04-17T13:46:55.450Z,22.76
2023-04-17T13:49:22.048Z,22.77
2023-04-17T13:51:48.562Z,22.75
2023-04-17T13:54:15.140Z,22.74
2023-04-17T13:56:42.330Z,22.74
2023-04-17T13:59:10.340Z,22.72
2023-04-17T14:01:37.281Z,22.72
2023-04-17T14:04:04.562Z,22.71
2023-04-17T14:06:35.857Z,22.44
2023-04-17T14:09:02.642Z,22.69
2023-04-17T14:11:29.608Z,22.68
2023-04-17T14:13:56.333Z,22.59
2023-04-17T14:16:23.384Z,22.67
2023-04-17T14:18:50.181Z,22.66
2023-04-17T14:21:17.798Z,22.65
2023-04-17T14:23:45.277Z,22.59
2023-04-17T14:26:12.524Z,22.52
2023-04-17T14:28:39.135Z,22.57
2023-04-17T14:31:06.637Z,22.64
2023-04-17T14:33:36.296Z,22.64
2023-04-17T14:36:05.186Z,22.59
2023-04-17T14:38:33.549Z,22.64
2023-04-17T14:41:00.261Z,22.58
2023-04-17T14:43:26.836Z,22.63
2023-04-17T14:45:53.468Z,22.62
2023-04-17T14:48:20.906Z,22.62
2023-04-17T14:50:47.487Z,22.63
2023-04-17T14:53:14.078Z,22.62
2023-04-17T14:55:41.076Z,22.61
2023-04-17T14:58:07.895Z,22.57
2023-04-17T15:00:34.538Z,22.52
2023-04-17T15:03:01.343Z,22.50
2023-04-17T15:05:28.062Z,22.41
2023-04-17T15:07:54.706Z,22.58
2023-04-17T15:10:21.439Z,22.57
2023-04-17T15:12:48.138Z,22.55
2023-04-17T15:15:14.659Z,22.56
2023-04-17T15:17:41.419Z,22.56
2023-04-17T15:20:08.572Z,22.55
2023-04-17T15:22:35.143Z,22.55
2023-04-17T15:25:01.916Z,22.53
2023-04-17T15:27:28.532Z,22.53
2023-04-17T15:29:55.167Z,22.53
2023-04-17T15:32:21.907Z,22.49
2023-04-17T15:34:48.579Z,22.51
2023-04-17T15:37:15.197Z,22.50
2023-04-17T15:39:41.937Z,22.50
2023-04-17T15:42:09.791Z,22.49
2023-04-17T15:44:37.627Z,22.49
2023-04-17T15:47:05.672Z,22.47
2023-04-17T15:49:33.736Z,22.48
2023-04-17T15:52:00.355Z,22.47
2023-04-17T15:54:27.015Z,22.41
2023-04-17T15:56:53.898Z,22.45
2023-04-17T15:59:20.728Z,22.43
2023-04-17T16:01:48.177Z,22.43
2023-04-17T16:04:15.289Z,22.44
2023-04-17T16:06:42.024Z,22.44
2023-04-17T16:09:09.751Z,22.43
2023-04-17T16:11:36.451Z,22.43
2023-04-17T16:14:03.128Z,22.42
2023-04-17T16:16:29.843Z,22.41
2023-04-17T16:18:57.159Z,22.37
2023-04-17T16:21:23.750Z,22.41
2023-04-17T16:23:50.344Z,22.41
2023-04-17T16:26:16.905Z,22.40
2023-04-17T16:28:45.624Z,22.41
2023-04-17T16:31:12.820Z,22.40
2023-04-17T16:33:40.690Z,22.37
2023-04-17T16:36:07.821Z,22.40
2023-04-17T16:38:35.547Z,22.30
2023-04-17T16:41:03.487Z,22.41
2023-04-17T16:43:31.032Z,22.40
2023-04-17T16:45:58.486Z,22.34
2023-04-17T16:48:27.087Z,22.40
2023-04-17T16:50:53.833Z,22.41
2023-04-17T16:53:21.282Z,22.41
2023-04-17T16:55:48.223Z,22.35
2023-04-17T16:58:14.800Z,22.37
2023-04-17T17:00:41.452Z,22.41
2023-04-17T17:03:08.107Z,22.43
2023-04-17T17:05:34.792Z,22.44
2023-04-17T17:08:01.490Z,22.44
2023-04-17T17:10:28.115Z,22.42
2023-04-17T17:12:54.664Z,22.33
2023-04-17T17:15:21.982Z,22.46
2023-04-17T17:17:50.759Z,22.47
2023-04-17T17:20:17.743Z,22.48
2023-04-17T17:22:44.278Z,22.49
2023-04-17T17:25:11.228Z,22.44
2023-04-17T17:27:37.764Z,22.51
2023-04-17T17:30:05.028Z,22.51
2023-04-17T17:32:31.718Z,22.53
2023-04-17T17:34:58.886Z,22.52
2023-04-17T17:37:27.056Z,22.53
2023-04-17T17:39:54.288Z,22.56
2023-04-17T17:42:20.860Z,22.57
2023-04-17T17:44:48.723Z,22.57
2023-04-17T17:47:15.633Z,22.57
2023-04-17T17:49:42.339Z,22.57
2023-04-17T17:52:10.044Z,22.58
2023-04-17T17:54:37.824Z,22.58
2023-04-17T17:57:06.143Z,22.56
2023-04-17T17:59:33.246Z,22.59
2023-04-17T18:02:01.846Z,22.60
2023-04-17T18:04:29.025Z,22.60
2023-04-17T18:06:55.796Z,22.61
2023-04-17T18:09:22.577Z,22.57
2023-04-17T18:11:49.202Z,22.60
2023-04-17T18:14:15.944Z,22.62
2023-04-17T18:16:43.052Z,22.61
2023-04-17T18:19:09.850Z,22.61
2023-04-17T18:21:36.489Z,22.62
2023-04-17T18:24:03.351Z,22.64
2023-04-17T18:26:29.956Z,22.62
2023-04-17T18:28:59.695Z,22.62
2023-04-17T18:31:28.172Z,22.59
2023-04-17T18:33:56.065Z,22.62
2023-04-17T18:36:23.164Z,22.53
2023-04-17T18:38:49.817Z,22.62
2023-04-17T18:41:16.798Z,22.62
2023-04-17T18:43:44.602Z,22.62
2023-04-17T18:46:14.394Z,22.50
2023-04-17T18:48:42.437Z,22.61
2023-04-17T18:51:15.919Z,22.56
2023-04-17T18:53:44.038Z,22.60
2023-04-17T18:56:15.739Z,22.63
2023-04-17T18:58:43.173Z,22.56
2023-04-17T19:01:10.729Z,22.63
2023-04-17T19:03:39.663Z,22.64
2023-04-17T19:06:06.852Z,22.63
2023-04-17T19:08:34.924Z,22.63
2023-04-17T19:11:06.415Z,22.63
2023-04-17T19:13:35.544Z,22.63
2023-04-17T19:16:02.165Z,22.63
2023-04-17T19:18:29.198Z,22.62
2023-04-17T19:20:56.196Z,22.61
2023-04-17T19:23:22.967Z,22.54
2023-04-17T19:25:56.312Z,22.61
2023-04-17T19:28:26.823Z,22.61
2023-04-17T19:31:03.647Z,22.61
2023-04-17T19:33:32.124Z,22.59
2023-04-17T19:36:07.840Z,22.58
2023-04-17T19:38:34.752Z,22.46
2023-04-17T19:41:17.685Z,22.61
2023-04-17T19:43:52.790Z,22.60
2023-04-17T19:46:23.838Z,22.49
2023-04-17T19:48:53.915Z,22.50
2023-04-17T19:51:21.136Z,22.60
2023-04-17T19:53:48.377Z,22.59
2023-04-17T19:56:15.566Z,22.51
2023-04-17T19:58:42.573Z,22.54
2023-04-17T20:01:10.356Z,22.59
2023-04-17T20:03:39.431Z,22.50
2023-04-17T20:06:06.668Z,22.58
2023-04-17T20:08:33.620Z,22.54
2023-04-17T20:11:00.863Z,22.44
2023-04-17T20:13:30.279Z,22.58
2023-04-17T20:15:57.026Z,22.58
2023-04-17T20:20:46.691Z,22.58
2023-04-17T20:23:14.502Z,22.53
2023-04-17T20:25:41.052Z,22.52
2023-04-17T20:28:07.883Z,22.56
2023-04-17T20:30:34.470Z,22.55
2023-04-17T20:33:01.587Z,22.55
2023-04-17T20:35:28.479Z,22.55
2023-04-17T20:37:57.183Z,22.53
2023-04-17T20:40:23.739Z,22.51
2023-04-17T20:42:51.291Z,22.55
2023-04-17T20:45:17.862Z,22.50
2023-04-17T20:47:56.568Z,22.53
2023-04-17T20:50:24.230Z,22.55
2023-04-17T20:52:50.941Z,22.54
2023-04-17T20:55:19.656Z,22.54
2023-04-17T20:57:46.687Z,22.41
2023-04-17T21:00:14.034Z,22.47
2023-04-17T21:02:40.974Z,22.52
2023-04-17T21:05:08.589Z,22.52
2023-04-17T21:07:37.661Z,22.44
2023-04-17T21:10:04.562Z,22.47
2023-04-17T21:12:32.972Z,22.47
2023-04-17T21:14:59.671Z,22.30
2023-04-17T21:17:26.341Z,22.50
2023-04-17T21:19:56.255Z,22.49
2023-04-17T21:22:26.089Z,22.49
2023-04-17T21:24:52.599Z,22.49
2023-04-17T21:27:19.165Z,22.37
2023-04-17T21:29:47.097Z,22.36
2023-04-17T21:32:13.889Z,22.46
2023-04-17T21:34:40.534Z,22.46
2023-04-17T21:37:07.220Z,22.38
2023-04-17T21:39:33.780Z,22.32
2023-04-17T21:42:01.799Z,22.46
2023-04-17T21:44:28.527Z,22.46
2023-04-17T21:46:55.189Z,22.46
2023-04-17T21:49:22.769Z,22.45
2023-04-17T21:51:49.378Z,22.41
2023-04-17T21:54:16.059Z,22.43
2023-04-17T21:56:42.757Z,22.43
2023-04-17T21:59:09.591Z,22.45
2023-04-17T22:01:36.314Z,22.45
2023-04-17T22:04:03.409Z,22.32
2023-04-17T22:06:30.007Z,22.34
2023-04-17T22:08:56.499Z,22.42
2023-04-17T22:11:23.091Z,22.43
2023-04-17T22:13:49.648Z,22.42
2023-04-17T22:16:16.274Z,22.42
2023-04-17T22:18:43.034Z,22.42
2023-04-17T22:22:06.119Z,22.42
2023-04-17T22:25:47.895Z,22.40
2023-04-17T22:29:29.525Z,22.37
2023-04-17T22:33:11.452Z,22.36
2023-04-17T22:36:55.518Z,22.35
2023-04-17T22:40:37.289Z,22.33
2023-04-17T22:44:18.771Z,22.31
2023-04-17T22:48:00.565Z,22.31
2023-04-17T22:51:42.237Z,22.30
2023-04-17T22:55:25.988Z,22.30
2023-04-17T22:59:07.678Z,22.29
2023-04-17T23:02:49.446Z,22.30
2023-04-17T23:06:31.357Z,22.29
2023-04-17T23:09:16.624Z,22.27
2023-04-17T23:11:43.199Z,22.30
2023-04-17T23:14:11.201Z,22.28
2023-04-17T23:16:38.027Z,22.29
2023-04-17T23:19:07.498Z,22.31
2023-04-17T23:21:34.057Z,22.28
2023-04-17T23:24:00.598Z,22.32
2023-04-17T23:26:27.227Z,22.33
2023-04-17T23:28:53.818Z,22.32
2023-04-17T23:31:20.487Z,22.33
2023-04-17T23:33:47.043Z,22.34
2023-04-17T23:36:13.677Z,22.29
2023-04-17T23:38:40.431Z,22.33
2023-04-17T23:41:07.007Z,22.33
2023-04-17T23:43:33.550Z,22.33
2023-04-17T23:46:00.854Z,22.32
2023-04-17T23:48:28.098Z,22.26
2023-04-17T23:50:55.038Z,22.33
2023-04-17T23:53:21.617Z,22.31
2023-04-17T23:55:48.244Z,22.34
2023-04-17T23:58:14.798Z,22.32
